^^
Meteo Knjazevac Station Historical Data
Daily Summary for July 05, 2022 Units:  Both    English   Metric
Daily Weekly Monthly Yearly Custom
  High: Low: Average:
Temperature: 91.8 °F /  33.2 °C 64.6 °F /  18.1 °C 73.5 °F /  23.1 °C
Dew Point: 71.2 °F /  21.8 °C 64 °F /  17.8 °C 66.6 °F /  19.2 °C
Humidity: 99% 50% 82%
Wind Speed: 5mph /  8km/h - 1.6mph /  2.6km/h
Wind Gust: 9mph /  14.5km/h - -
Wind- - SW
Pressure: 30.06 in /  1017.8 hPa 30.00 in /  1015.8 hPa -
Precipitation: 0.00 in /  0 mm    
Historical Graphs
 
 
Tabular Data for July 05, 2022
Time Temperature Dew Point Pressure Wind Wind Speed Wind Gust Humidity Rainfall Rate (Hourly) solar Conditions
00:00 72 °F /  22.2 °C 68.2 °F /  20.1 °C 30.04in /  1017.2hPa Calm   2mph /  3.2km/h 88% 0.00in /  0mm 0 W/m2
00:10 71.4 °F /  21.9 °C 67.7 °F /  19.8 °C 30.04in /  1017.2hPa WNW 2mph /  3.2km/h 3mph /  4.8km/h 88% 0.00in /  0mm 0 W/m2
00:20 71.1 °F /  21.7 °C 67.7 °F /  19.8 °C 30.04in /  1017.2hPa Calm   2mph /  3.2km/h 89% 0.00in /  0mm 0 W/m2
00:30 70.5 °F /  21.4 °C 67.1 °F /  19.5 °C 30.05in /  1017.5hPa WSW 2mph /  3.2km/h 3mph /  4.8km/h 89% 0.00in /  0mm 0 W/m2
01:00 69.8 °F /  21 °C 66.7 °F /  19.3 °C 30.05in /  1017.5hPa Calm     90% 0.00in /  0mm 0 W/m2
01:10 69.6 °F /  20.9 °C 66.6 °F /  19.2 °C 30.05in /  1017.5hPa Calm     90% 0.00in /  0mm 0 W/m2
01:20 69.4 °F /  20.8 °C 66.4 °F /  19.1 °C 30.05in /  1017.5hPa Calm   1mph /  1.6km/h 90% 0.00in /  0mm 0 W/m2
01:30 69.4 °F /  20.8 °C 66.7 °F /  19.3 °C 30.06in /  1017.8hPa Calm   2mph /  3.2km/h 91% 0.00in /  0mm 0 W/m2
02:00 68.7 °F /  20.4 °C 66 °F /  18.9 °C 30.05in /  1017.5hPa West 1mph /  1.6km/h 3mph /  4.8km/h 91% 0.00in /  0mm 0 W/m2
02:10 68.4 °F /  20.2 °C 66.3 °F /  19.1 °C 30.06in /  1017.8hPa West 1mph /  1.6km/h 3mph /  4.8km/h 93% 0.00in /  0mm 0 W/m2
02:20 68.4 °F /  20.2 °C 66.3 °F /  19.1 °C 30.05in /  1017.5hPa WNW 1mph /  1.6km/h 2mph /  3.2km/h 93% 0.00in /  0mm 0 W/m2
02:30 68.2 °F /  20.1 °C 66.1 °F /  18.9 °C 30.06in /  1017.8hPa Calm   2mph /  3.2km/h 93% 0.00in /  0mm 0 W/m2
02:40 68 °F /  20 °C 65.9 °F /  18.8 °C 30.05in /  1017.5hPa Calm   1mph /  1.6km/h 93% 0.00in /  0mm 0 W/m2
02:50 67.6 °F /  19.8 °C 65.5 °F /  18.6 °C 30.05in /  1017.5hPa West 1mph /  1.6km/h 3mph /  4.8km/h 93% 0.00in /  0mm 0 W/m2
03:00 67.5 °F /  19.7 °C 65.7 °F /  18.7 °C 30.05in /  1017.5hPa NW 1mph /  1.6km/h 3mph /  4.8km/h 94% 0.00in /  0mm 0 W/m2
03:10 67.1 °F /  19.5 °C 65.3 °F /  18.5 °C 30.05in /  1017.5hPa West 2mph /  3.2km/h 4mph /  6.4km/h 94% 0.00in /  0mm 0 W/m2
03:20 66.7 °F /  19.3 °C 65 °F /  18.3 °C 30.05in /  1017.5hPa WSW 2mph /  3.2km/h 3mph /  4.8km/h 94% 0.00in /  0mm 0 W/m2
03:30 66.4 °F /  19.1 °C 64.6 °F /  18.1 °C 30.05in /  1017.5hPa SW 2mph /  3.2km/h 3mph /  4.8km/h 94% 0.00in /  0mm 0 W/m2
03:40 66.4 °F /  19.1 °C 64.9 °F /  18.3 °C 30.05in /  1017.5hPa WSW 2mph /  3.2km/h 4mph /  6.4km/h 95% 0.00in /  0mm 0 W/m2
03:50 66 °F /  18.9 °C 64.8 °F /  18.2 °C 30.05in /  1017.5hPa West 2mph /  3.2km/h 5mph /  8km/h 96% 0.00in /  0mm 0 W/m2
04:00 66 °F /  18.9 °C 64.8 °F /  18.2 °C 30.05in /  1017.5hPa WNW 1mph /  1.6km/h 3mph /  4.8km/h 96% 0.00in /  0mm 0 W/m2
04:10 66 °F /  18.9 °C 64.8 °F /  18.2 °C 30.05in /  1017.5hPa West 2mph /  3.2km/h 4mph /  6.4km/h 96% 0.00in /  0mm 0 W/m2
04:20 65.8 °F /  18.8 °C 64.7 °F /  18.2 °C 30.05in /  1017.5hPa Calm   4mph /  6.4km/h 96% 0.00in /  0mm 0 W/m2
04:30 65.8 °F /  18.8 °C 64.7 °F /  18.2 °C 30.06in /  1017.8hPa WSW 2mph /  3.2km/h 2mph /  3.2km/h 96% 0.00in /  0mm 0 W/m2
04:50 65.3 °F /  18.5 °C 64.1 °F /  17.8 °C 30.06in /  1017.8hPa West 2mph /  3.2km/h 4mph /  6.4km/h 96% 0.00in /  0mm 0 W/m2
05:00 65.1 °F /  18.4 °C 64 °F /  17.8 °C 30.05in /  1017.5hPa West 2mph /  3.2km/h 3mph /  4.8km/h 96% 0.00in /  0mm 5 W/m2
05:10 64.9 °F /  18.3 °C 64.4 °F /  18 °C 30.06in /  1017.8hPa West 2mph /  3.2km/h 4mph /  6.4km/h 98% 0.00in /  0mm 10 W/m2
05:20 64.8 °F /  18.2 °C 64.2 °F /  17.9 °C 30.06in /  1017.8hPa West 3mph /  4.8km/h 6mph /  9.7km/h 98% 0.00in /  0mm 16 W/m2
05:50 64.6 °F /  18.1 °C 64 °F /  17.8 °C 30.06in /  1017.8hPa WSW 1mph /  1.6km/h 4mph /  6.4km/h 98% 0.02in /  0.51mm 47 W/m2
06:00 64.6 °F /  18.1 °C 64 °F /  17.8 °C 30.06in /  1017.8hPa WSW 2mph /  3.2km/h 3mph /  4.8km/h 98% 0.00in /  0mm 57 W/m2
06:10 64.6 °F /  18.1 °C 64 °F /  17.8 °C 30.06in /  1017.8hPa West 2mph /  3.2km/h 3mph /  4.8km/h 98% 0.00in /  0mm 89 W/m2
06:20 64.8 °F /  18.2 °C 64.5 °F /  18.1 °C 30.06in /  1017.8hPa West 1mph /  1.6km/h 4mph /  6.4km/h 99% 0.00in /  0mm 110 W/m2
07:10 66 °F /  18.9 °C 65.5 °F /  18.6 °C 30.06in /  1017.8hPa West 2.1mph /  3.4km/h 5mph /  8km/h 98.4% 0.00in /  0mm 233 W/m2
07:30 68.2 °F /  20.1 °C 67 °F /  19.4 °C 30.06in /  1017.8hPa NW 1mph /  1.6km/h 3mph /  4.8km/h 96% 0.00in /  0mm 304 W/m2
07:40 68.9 °F /  20.5 °C 67.4 °F /  19.7 °C 30.06in /  1017.8hPa NW 1mph /  1.6km/h 3mph /  4.8km/h 95% 0.00in /  0mm 335 W/m2
08:10 71.2 °F /  21.8 °C 66.2 °F /  19 °C 30.06in /  1017.8hPa SSW 1mph /  1.6km/h 3mph /  4.8km/h 84% 0.00in /  0mm 433 W/m2
08:20 72.5 °F /  22.5 °C 66.3 °F /  19.1 °C 30.06in /  1017.8hPa SSE 5mph /  8km/h 8mph /  12.9km/h 81% 0.00in /  0mm 470 W/m2
08:30 74.7 °F /  23.7 °C 65.1 °F /  18.4 °C 30.06in /  1017.8hPa SE 3mph /  4.8km/h 8mph /  12.9km/h 72% 0.00in /  0mm 504 W/m2
08:40 76.3 °F /  24.6 °C 65.4 °F /  18.6 °C 30.06in /  1017.8hPa SE 5mph /  8km/h 9mph /  14.5km/h 69% 0.00in /  0mm 534 W/m2
08:50 77.7 °F /  25.4 °C 65.9 °F /  18.8 °C 30.06in /  1017.8hPa SE 5mph /  8km/h 9mph /  14.5km/h 67% 0.00in /  0mm 562 W/m2
09:00 79 °F /  26.1 °C 67.1 °F /  19.5 °C 30.05in /  1017.5hPa ESE 3mph /  4.8km/h 8mph /  12.9km/h 67% 0.00in /  0mm 595 W/m2
09:10 80.4 °F /  26.9 °C 66.7 °F /  19.3 °C 30.05in /  1017.5hPa SE 3mph /  4.8km/h 7mph /  11.3km/h 63% 0.00in /  0mm 630 W/m2
09:20 81.5 °F /  27.5 °C 66.3 °F /  19.1 °C 30.04in /  1017.2hPa ESE 2mph /  3.2km/h 8mph /  12.9km/h 60% 0.00in /  0mm 660 W/m2
09:30 82.2 °F /  27.9 °C 66.5 °F /  19.2 °C 30.04in /  1017.2hPa SE 3mph /  4.8km/h 6mph /  9.7km/h 59% 0.00in /  0mm 686 W/m2
09:50 84 °F /  28.9 °C 68.1 °F /  20.1 °C 30.04in /  1017.2hPa Calm   5mph /  8km/h 59% 0.00in /  0mm 744 W/m2
10:10 85.6 °F /  29.8 °C 69.7 °F /  20.9 °C 30.04in /  1017.2hPa Calm   4mph /  6.4km/h 59% 0.00in /  0mm 786 W/m2
10:20 86.4 °F /  30.2 °C 69.8 °F /  21 °C 30.03in /  1016.8hPa West 1mph /  1.6km/h 5mph /  8km/h 58% 0.00in /  0mm 813 W/m2
10:30 87.1 °F /  30.6 °C 70 °F /  21.1 °C 30.03in /  1016.8hPa WSW 2mph /  3.2km/h 4mph /  6.4km/h 57% 0.00in /  0mm 828 W/m2
10:40 87.5 °F /  30.8 °C 69.3 °F /  20.7 °C 30.03in /  1016.8hPa WSW 2mph /  3.2km/h 5mph /  8km/h 55% 0.00in /  0mm 837 W/m2
10:50 88.3 °F /  31.3 °C 70.1 °F /  21.2 °C 30.03in /  1016.8hPa NNW 2mph /  3.2km/h 5mph /  8km/h 55% 0.00in /  0mm 438 W/m2
11:00 89.1 °F /  31.7 °C 70.8 °F /  21.6 °C 30.03in /  1016.8hPa North 1mph /  1.6km/h 5mph /  8km/h 55% 0.00in /  0mm 894 W/m2
11:20 90.1 °F /  32.3 °C 71.2 °F /  21.8 °C 30.02in /  1016.5hPa NNE 1mph /  1.6km/h 5mph /  8km/h 54% 0.00in /  0mm 277 W/m2
11:30 90.7 °F /  32.6 °C 70.6 °F /  21.4 °C 30.02in /  1016.5hPa WSW 2mph /  3.2km/h 6mph /  9.7km/h 52% 0.00in /  0mm 926 W/m2
11:40 91 °F /  32.8 °C 71 °F /  21.7 °C 30.01in /  1016.1hPa NW 2mph /  3.2km/h 6mph /  9.7km/h 52% 0.00in /  0mm 942 W/m2
11:50 91.2 °F /  32.9 °C 70 °F /  21.1 °C 30.01in /  1016.1hPa West 3mph /  4.8km/h 7mph /  11.3km/h 50% 0.00in /  0mm 959 W/m2
12:00 91.8 °F /  33.2 °C 70.5 °F /  21.4 °C 30.00in /  1015.8hPa NNE 1mph /  1.6km/h 6mph /  9.7km/h 50% 0.00in /  0mm 965 W/m2
Knjazevac, Serbia
Compliments of Weather Underground - 2 mb